Ajo, AZ

2:16 PM MST on October 23, 2014 (GMT -0700)
KAZAJO2 | Change Station
CLOSE
Current Station
Personal Weather Station
Location: Ajo, AZ
Elevation: 1739 ft
Nearby Weather Stations

Elev 1739 ft 32.38 °N, 112.86 °W | Updated 53 seconds ago

Clear
Clear
91.4 °F
Feels Like 88 °F
N
3.0
Wind Variable Wind from SSW
Gusts 4.0 mph

Today
High -- | Low -- °F
--% Chance of Precip.
Yesterday
High -- | Low -- °F
Precip. -- in
6:41 AM 5:49 PM
Waning Crescent, 0% visible
Pressure 29.91 in
Visibility 10.0 miles
Clouds Clear
Heat Index 88 °F
Dew Point 45 °F
Humidity 20%
Rainfall 0.00 in
Snow Depth Not available.
UV 5 out of 12
Pollen 5.50 out of 12
Air Quality Not available.
Flu Activity No Activity
METAR KGXF 232055Z 08001KT 10SM CLR 34/08 A2993 RMK SLP126 57027

More Conditions Fewer Conditions

Pressure 29.91 in
Visibility 10.0 miles
Clouds Clear
Heat Index 88 °F
Dew Point 45 °F
Humidity 20%
Rainfall 0.00 in
Snow Depth Not available.
UV 5 out of 12
Pollen 5.50 out of 12
Air Quality Not available.
Flu Activity No Activity
METAR KGXF 232055Z 08001KT 10SM CLR 34/08 A2993 RMK SLP126 57027

More Conditions Fewer Conditions

10-Day Weather Forecast

Almanac

Astronomy

Oct. 23, 2014 Rise Set
Actual Time 6:41 AM MST 5:49 PM MST
Civil Twilight 6:16 AM MST 6:14 PM MST
Nautical Twilight 5:47 AM MST 6:43 PM MST
Astronomical Twilight 5:19 AM MST 7:11 PM MST
Moon 6:25 AM MST 5:53 PM MST
Length of Visible Light 11h 58m
Length of Day
11h 08m
Tomorrow will be 1m 51s shorter.
Waning Crescent, 0% of the Moon is Illuminated
Today
Waning Crescent
Oct 23
New
Oct 30
First Quarter
Nov 6
Full
Nov 14
Last Quarter

Today's Extremes

State Highs State Lows

Community

WunderPhotos

Upload Photos

1,764,372 photos uploaded!

WunderBlogs® & News

Nearby

Snow Depth

Station Depth Elevation
Workman Creek 0 in 6900 ft
Mormon Mountain 0 in 7500 ft
Beaver Head 0 in 7990 ft

Earthquake Activity

City Distance Mag. Time & Date
No recent earthquake activity has been reported nearby.
Minimum magnitude displayed is 2.5.

Coastal Water Temperatures

Place Temperature
No Stations Reporting

Nearby Weather Stations